createdAt,value
2022-12-29T00:03:08.515Z,9.69
2022-12-29T00:08:12.800Z,9.82
2022-12-29T00:13:33.611Z,9.85
2022-12-29T00:18:35.855Z,9.90
2022-12-29T00:23:57.796Z,9.86
2022-12-29T00:29:18.398Z,9.95
2022-12-29T00:34:38.989Z,9.91
2022-12-29T00:40:03.150Z,9.74
2022-12-29T00:45:05.913Z,9.86
2022-12-29T00:50:08.464Z,10.10
2022-12-29T00:55:10.629Z,10.06
2022-12-29T01:06:37.870Z,10.14
2022-12-29T01:11:41.646Z,9.97
2022-12-29T01:16:43.895Z,9.97
2022-12-29T01:21:47.312Z,10.09
2022-12-29T01:26:50.246Z,10.06
2022-12-29T01:31:52.641Z,9.77
2022-12-29T01:36:54.880Z,9.81
2022-12-29T01:41:57.007Z,9.79
2022-12-29T01:46:59.196Z,9.68
2022-12-29T01:52:06.680Z,9.73
2022-12-29T01:57:15.006Z,9.53
2022-12-29T02:02:17.867Z,9.44
2022-12-29T02:07:23.419Z,9.55
2022-12-29T02:12:28.500Z,9.32
2022-12-29T02:17:33.958Z,9.46
2022-12-29T02:22:47.881Z,9.37
2022-12-29T02:28:05.853Z,9.30
2022-12-29T02:33:23.536Z,9.23
2022-12-29T02:38:47.312Z,9.21
2022-12-29T02:44:10.284Z,9.17
2022-12-29T02:49:17.641Z,9.15
2022-12-29T02:54:40.147Z,9.10
2022-12-29T02:59:45.150Z,9.11
2022-12-29T03:05:19.791Z,9.06
2022-12-29T03:10:30.902Z,9.02
2022-12-29T03:16:05.680Z,8.82
2022-12-29T03:21:17.837Z,8.96
2022-12-29T03:26:22.212Z,8.81
2022-12-29T03:31:25.894Z,8.92
2022-12-29T03:36:52.135Z,8.64
2022-12-29T03:42:03.318Z,8.77
2022-12-29T03:47:06.962Z,8.55
2022-12-29T03:52:12.275Z,8.69
2022-12-29T03:57:14.469Z,8.71
2022-12-29T04:02:16.698Z,8.68
2022-12-29T04:07:20.628Z,8.47
2022-12-29T04:12:22.872Z,8.35
2022-12-29T04:17:24.987Z,8.19
2022-12-29T04:22:27.168Z,8.37
2022-12-29T04:27:29.343Z,8.09
2022-12-29T04:32:31.512Z,8.31
2022-12-29T04:37:35.249Z,8.10
2022-12-29T04:42:37.580Z,8.17
2022-12-29T04:47:39.806Z,7.99
2022-12-29T04:52:41.975Z,7.85
2022-12-29T04:57:44.205Z,7.94
2022-12-29T05:02:46.870Z,7.84
2022-12-29T05:07:49.172Z,7.89
2022-12-29T05:12:54.281Z,7.97
2022-12-29T05:17:56.694Z,7.84
2022-12-29T05:22:59.932Z,7.90
2022-12-29T05:28:02.071Z,7.77
2022-12-29T05:33:04.449Z,7.68
2022-12-29T05:38:06.608Z,7.72
2022-12-29T05:43:10.038Z,7.68
2022-12-29T05:48:12.147Z,7.67
2022-12-29T05:53:14.354Z,7.67
2022-12-29T05:58:19.611Z,7.67
2022-12-29T06:03:21.927Z,7.51
2022-12-29T06:08:24.186Z,7.51
2022-12-29T06:13:26.396Z,7.45
2022-12-29T06:18:28.769Z,7.64
2022-12-29T06:23:33.461Z,7.72
2022-12-29T06:28:35.724Z,7.54
2022-12-29T06:33:38.975Z,7.78
2022-12-29T06:38:43.943Z,7.74
2022-12-29T06:43:46.177Z,8.14
2022-12-29T06:48:48.529Z,8.15
2022-12-29T06:53:50.692Z,8.29
2022-12-29T06:58:52.865Z,8.40
2022-12-29T07:04:03.889Z,8.73
2022-12-29T07:09:06.119Z,8.92
2022-12-29T07:14:08.383Z,8.87
2022-12-29T07:19:10.710Z,8.81
2022-12-29T07:24:16.565Z,8.97
2022-12-29T07:29:25.323Z,8.92
2022-12-29T07:34:28.765Z,9.03
2022-12-29T07:39:30.892Z,9.18
2022-12-29T07:44:33.073Z,9.13
2022-12-29T07:49:35.563Z,9.27
2022-12-29T07:54:38.807Z,9.48
2022-12-29T07:59:41.439Z,9.51
2022-12-29T08:04:43.657Z,9.63
2022-12-29T08:09:45.800Z,9.63
2022-12-29T08:14:48.014Z,9.73
2022-12-29T08:19:50.289Z,9.92
2022-12-29T08:24:52.898Z,10.01
2022-12-29T08:29:56.589Z,10.00
2022-12-29T08:34:58.816Z,10.41
2022-12-29T08:40:05.034Z,10.65
2022-12-29T08:45:08.337Z,10.90
2022-12-29T08:50:10.656Z,11.10
2022-12-29T08:55:15.862Z,11.35
2022-12-29T09:00:18.311Z,11.72
2022-12-29T09:05:20.616Z,11.95
2022-12-29T09:10:22.836Z,12.05
2022-12-29T09:15:25.233Z,12.15
2022-12-29T09:20:27.423Z,12.37
2022-12-29T09:25:30.452Z,12.55
2022-12-29T09:30:32.599Z,12.63
2022-12-29T09:35:34.749Z,12.79
2022-12-29T09:40:37.305Z,12.87
2022-12-29T09:45:47.286Z,12.98
2022-12-29T09:50:51.670Z,13.00
2022-12-29T09:55:59.485Z,13.32
2022-12-29T10:01:15.947Z,13.38
2022-12-29T10:06:33.106Z,13.72
2022-12-29T10:11:54.248Z,13.91
2022-12-29T10:17:17.050Z,13.95
2022-12-29T10:22:21.905Z,14.14
2022-12-29T10:27:25.393Z,14.19
2022-12-29T10:32:41.902Z,14.23
2022-12-29T10:37:54.307Z,14.45
2022-12-29T10:48:31.809Z,14.94
2022-12-29T11:10:36.245Z,15.24
2022-12-29T11:15:57.348Z,15.47
2022-12-29T11:21:05.512Z,15.49
2022-12-29T11:26:22.250Z,15.45
2022-12-29T11:31:24.722Z,15.45
2022-12-29T11:36:27.441Z,15.67
2022-12-29T11:41:32.513Z,15.74
2022-12-29T11:46:39.786Z,15.86
2022-12-29T11:51:49.067Z,15.91
2022-12-29T11:56:53.121Z,16.05
2022-12-29T12:01:56.959Z,16.29
2022-12-29T12:07:11.927Z,16.44
2022-12-29T12:12:32.943Z,16.31
2022-12-29T12:17:44.799Z,16.66
2022-12-29T12:23:00.418Z,16.59
2022-12-29T12:28:07.046Z,16.55
2022-12-29T12:33:27.717Z,16.58
2022-12-29T12:38:51.656Z,16.81
2022-12-29T12:44:15.547Z,16.96
2022-12-29T12:49:55.695Z,17.16
2022-12-29T12:55:36.944Z,17.27
2022-12-29T13:00:50.921Z,17.39
2022-12-29T13:06:02.775Z,17.28
2022-12-29T13:11:23.323Z,17.27
2022-12-29T13:16:55.002Z,17.44
2022-12-29T13:22:14.968Z,17.56
2022-12-29T13:27:20.549Z,17.59
2022-12-29T13:32:35.097Z,17.78
2022-12-29T13:37:48.639Z,17.72
2022-12-29T13:42:52.097Z,17.79
2022-12-29T13:48:01.625Z,17.79
2022-12-29T13:53:06.344Z,17.86
2022-12-29T13:58:40.215Z,17.59
2022-12-29T14:03:49.550Z,17.51
2022-12-29T14:08:55.346Z,17.62
2022-12-29T14:13:58.245Z,17.56
2022-12-29T14:19:17.069Z,17.65
2022-12-29T14:24:44.097Z,17.83
2022-12-29T14:29:48.698Z,17.96
2022-12-29T14:34:54.293Z,18.04
2022-12-29T14:40:30.576Z,18.08
2022-12-29T14:45:38.829Z,17.95
2022-12-29T14:50:44.998Z,18.12
2022-12-29T14:55:57.414Z,18.24
2022-12-29T15:01:01.193Z,17.95
2022-12-29T15:06:10.319Z,17.18
2022-12-29T15:11:19.247Z,16.59
2022-12-29T15:16:27.772Z,16.13
2022-12-29T15:21:37.777Z,15.60
2022-12-29T15:26:47.950Z,15.36
2022-12-29T15:31:50.191Z,15.07
2022-12-29T15:36:52.781Z,14.69
2022-12-29T15:42:27.985Z,14.64
2022-12-29T15:47:31.762Z,14.45
2022-12-29T15:52:35.393Z,14.43
2022-12-29T15:57:44.570Z,14.28
2022-12-29T16:02:47.528Z,14.14
2022-12-29T16:08:01.363Z,14.04
2022-12-29T16:13:27.964Z,13.93
2022-12-29T16:18:35.552Z,13.80
2022-12-29T16:23:38.411Z,13.65
2022-12-29T16:28:45.709Z,13.54
2022-12-29T16:33:52.766Z,13.25
2022-12-29T16:39:25.399Z,13.33
2022-12-29T16:44:30.433Z,13.17
2022-12-29T16:49:38.021Z,13.08
2022-12-29T16:54:42.325Z,12.87
2022-12-29T16:59:46.483Z,12.88
2022-12-29T17:04:50.951Z,12.53
2022-12-29T17:09:56.436Z,12.67
2022-12-29T17:15:07.054Z,12.62
2022-12-29T17:20:27.208Z,12.43
2022-12-29T17:25:38.354Z,12.31
2022-12-29T17:30:41.351Z,12.03
2022-12-29T17:35:43.773Z,12.16
2022-12-29T17:40:46.236Z,12.16
2022-12-29T17:45:54.166Z,12.05
2022-12-29T17:50:58.531Z,11.89
2022-12-29T17:56:00.743Z,11.60
2022-12-29T18:01:03.912Z,11.65
2022-12-29T18:06:08.752Z,11.66
2022-12-29T18:11:23.495Z,11.47
2022-12-29T18:16:25.761Z,11.33
2022-12-29T18:21:27.935Z,11.48
2022-12-29T18:26:32.162Z,11.33
2022-12-29T18:31:36.991Z,11.39
2022-12-29T18:36:39.394Z,11.46
2022-12-29T18:41:41.578Z,11.47
2022-12-29T18:46:44.055Z,11.36
2022-12-29T18:51:46.304Z,11.38
2022-12-29T18:56:48.490Z,11.30
2022-12-29T19:01:51.040Z,11.12
2022-12-29T19:06:53.384Z,11.17
2022-12-29T19:11:55.595Z,11.07
2022-12-29T19:16:57.776Z,11.12
2022-12-29T19:22:00.021Z,11.03
2022-12-29T19:27:02.291Z,11.13
2022-12-29T19:32:06.107Z,11.05
2022-12-29T19:37:08.327Z,10.97
2022-12-29T19:42:10.519Z,10.97
2022-12-29T19:47:20.705Z,10.96
2022-12-29T19:52:23.929Z,10.89
2022-12-29T19:57:27.108Z,10.92
2022-12-29T20:02:32.716Z,10.91
2022-12-29T20:07:35.556Z,10.81
2022-12-29T20:12:38.814Z,10.61
2022-12-29T20:23:03.387Z,10.79
2022-12-29T20:28:05.667Z,10.95
2022-12-29T20:33:09.438Z,10.93
2022-12-29T20:38:11.725Z,10.92
2022-12-29T20:43:16.553Z,10.93
2022-12-29T20:48:18.837Z,10.71
2022-12-29T20:53:21.188Z,10.72
2022-12-29T20:58:24.676Z,10.24
2022-12-29T21:03:27.432Z,10.27
2022-12-29T21:08:33.196Z,10.27
2022-12-29T21:13:35.861Z,10.29
2022-12-29T21:18:38.186Z,10.07
2022-12-29T21:23:40.893Z,10.15
2022-12-29T21:28:44.687Z,9.94
2022-12-29T21:33:50.723Z,9.95
2022-12-29T21:38:53.628Z,9.87
2022-12-29T21:44:14.482Z,9.73
2022-12-29T21:49:16.916Z,9.69
2022-12-29T21:54:41.581Z,9.72
2022-12-29T22:00:02.016Z,9.46
2022-12-29T22:05:24.044Z,9.69
2022-12-29T22:10:44.916Z,9.70
2022-12-29T22:15:47.180Z,9.66
2022-12-29T22:20:49.384Z,9.78
2022-12-29T22:25:53.112Z,9.61
2022-12-29T22:30:58.456Z,9.89
2022-12-29T22:36:00.658Z,9.73
2022-12-29T22:41:03.106Z,9.82
2022-12-29T22:46:08.058Z,9.86
2022-12-29T22:51:10.276Z,9.80
2022-12-29T22:56:14.087Z,9.93
2022-12-29T23:01:18.625Z,9.88
2022-12-29T23:06:20.913Z,9.74
2022-12-29T23:11:23.939Z,9.92
2022-12-29T23:16:26.748Z,9.98
2022-12-29T23:21:28.995Z,9.94
2022-12-29T23:26:37.166Z,9.89
2022-12-29T23:31:40.058Z,9.83
2022-12-29T23:36:43.940Z,9.92
2022-12-29T23:41:46.409Z,10.02
2022-12-29T23:46:48.747Z,10.19
2022-12-29T23:51:51.003Z,10.11
2022-12-29T23:56:53.222Z,10.14
